Time;durP1;ratioP1;P1;durP2;ratioP2;P2;SDS_P1;SDS_P2;PMS_P1;PMS_P2;Temp;Humidity;BMP_temperature;BMP_pressure;BME280_temperature;BME280_humidity;BME280_pressure;Samples;Min_cycle;Max_cycle;Signal;HPM_P1;HPM_P2
2023/10/19 00:00:36;;;;;;;13.60;7.68;;;11.30;99.90;;;;;;5073819;28;20017;-34
2023/10/19 00:03:02;;;;;;;10.60;6.97;;;11.40;99.90;;;;;;5073892;28;20028;-34
2023/10/19 00:05:32;;;;;;;11.18;6.85;;;11.40;99.90;;;;;;5055751;28;20017;-33
2023/10/19 00:08:05;;;;;;;10.90;7.28;;;11.40;99.90;;;;;;5073908;28;20020;-33
2023/10/19 00:10:38;;;;;;;12.57;7.20;;;11.40;99.90;;;;;;5072916;28;20056;-33
2023/10/19 00:13:05;;;;;;;13.07;7.22;;;11.40;99.90;;;;;;5073320;28;20025;-33
2023/10/19 00:15:34;;;;;;;12.93;6.85;;;11.50;99.90;;;;;;5073393;28;20021;-34
2023/10/19 00:18:13;;;;;;;14.40;7.28;;;11.50;99.90;;;;;;5073987;28;20103;-34
2023/10/19 00:23:09;;;;;;;13.43;8.82;;;11.70;99.90;;;;;;5073418;28;20036;-34
2023/10/19 00:25:35;;;;;;;11.00;7.25;;;11.70;99.90;;;;;;5070538;28;20036;-33
2023/10/19 00:28:04;;;;;;;11.63;7.53;;;11.70;99.90;;;;;;5053175;28;20033;-34
2023/10/19 00:30:32;;;;;;;14.00;7.85;;;11.70;99.90;;;;;;5053182;28;20029;-34
2023/10/19 00:33:18;;;;;;;11.77;7.82;;;11.80;99.90;;;;;;5053212;28;20052;-33
2023/10/19 00:36:26;;;;;;;10.65;7.75;;;11.90;99.90;;;;;;5053162;28;20017;-33
2023/10/19 00:43:42;;;;;;;13.00;7.60;;;11.80;99.90;;;;;;5073067;28;20608;-35
2023/10/19 00:46:14;;;;;;;14.55;9.23;;;11.90;99.90;;;;;;5073116;28;20503;-34
2023/10/19 00:48:48;;;;;;;14.93;8.35;;;11.90;99.90;;;;;;5069542;28;20031;-34
2023/10/19 00:53:56;;;;;;;13.55;9.23;;;12.00;99.90;;;;;;5072849;28;20048;-34
2023/10/19 00:56:25;;;;;;;14.18;8.48;;;12.00;99.90;;;;;;5072858;28;20028;-32
2023/10/19 00:58:59;;;;;;;13.20;8.77;;;12.00;99.90;;;;;;5072756;28;20496;-35
2023/10/19 01:01:28;;;;;;;15.30;9.88;;;12.00;99.90;;;;;;5072626;28;20028;-33
2023/10/19 01:03:58;;;;;;;14.65;9.15;;;12.00;99.90;;;;;;5072117;28;20021;-34
2023/10/19 01:06:25;;;;;;;16.58;10.35;;;12.10;99.90;;;;;;5071471;28;20389;-36
2023/10/19 01:08:52;;;;;;;12.25;8.70;;;12.10;99.90;;;;;;5072306;28;20028;-34
2023/10/19 01:11:21;;;;;;;11.38;7.05;;;12.10;99.90;;;;;;5072255;28;20028;-35
2023/10/19 01:13:47;;;;;;;16.67;9.68;;;12.10;99.90;;;;;;5071922;28;20062;-34
2023/10/19 01:16:23;;;;;;;14.80;9.73;;;12.10;99.90;;;;;;5072696;28;20488;-36
2023/10/19 01:18:54;;;;;;;16.70;9.90;;;12.10;99.90;;;;;;5072612;28;20036;-34
2023/10/19 01:21:45;;;;;;;13.45;9.52;;;12.20;99.90;;;;;;5072594;28;20507;-36
2023/10/19 01:24:16;;;;;;;14.77;9.23;;;12.30;99.90;;;;;;5076957;28;20040;-34
2023/10/19 01:26:42;;;;;;;13.70;8.90;;;12.30;99.90;;;;;;5076688;28;20075;-34
2023/10/19 01:29:14;;;;;;;13.00;9.02;;;12.30;99.90;;;;;;5076721;28;20048;-34
2023/10/19 01:31:52;;;;;;;15.05;8.80;;;12.30;99.90;;;;;;5076645;28;20031;-35
2023/10/19 01:34:21;;;;;;;15.35;8.60;;;12.40;99.90;;;;;;5076546;28;20032;-34
2023/10/19 01:36:50;;;;;;;13.30;9.02;;;12.40;99.90;;;;;;5058512;28;20024;-34
2023/10/19 01:39:18;;;;;;;18.05;8.93;;;12.50;99.90;;;;;;5075678;28;20028;-35
2023/10/19 01:41:44;;;;;;;14.90;9.07;;;12.40;99.90;;;;;;5076201;28;20141;-34
2023/10/19 01:44:13;;;;;;;15.40;8.77;;;12.40;99.90;;;;;;5076391;28;20029;-34
2023/10/19 01:46:39;;;;;;;15.23;8.70;;;12.40;99.90;;;;;;5076320;28;20025;-36
2023/10/19 01:49:05;;;;;;;12.88;9.20;;;12.50;99.90;;;;;;5076256;28;20036;-35
2023/10/19 01:51:38;;;;;;;14.90;9.13;;;12.60;99.90;;;;;;5075806;28;20490;-34
2023/10/19 01:54:04;;;;;;;15.93;8.40;;;12.70;99.90;;;;;;5076237;28;20071;-34
2023/10/19 01:56:30;;;;;;;14.10;8.88;;;12.80;99.90;;;;;;5076077;28;20495;-34
2023/10/19 01:58:57;;;;;;;13.50;7.68;;;12.90;99.90;;;;;;5076152;28;20021;-34
2023/10/19 02:03:58;;;;;;;10.85;7.07;;;12.90;99.90;;;;;;5076295;28;20028;-35
2023/10/19 02:06:34;;;;;;;15.00;8.45;;;13.00;99.90;;;;;;5075809;28;20063;-34
2023/10/19 02:09:00;;;;;;;11.57;7.25;;;13.10;99.90;;;;;;5075944;28;20036;-34
2023/10/19 02:11:28;;;;;;;11.25;7.63;;;13.20;99.90;;;;;;5075680;28;20024;-36
2023/10/19 02:14:04;;;;;;;19.10;8.40;;;13.20;99.90;;;;;;5055816;28;20082;-34
2023/10/19 02:16:32;;;;;;;15.77;7.50;;;13.30;99.90;;;;;;5037965;28;20393;-35
2023/10/19 02:18:58;;;;;;;14.77;7.53;;;13.40;99.90;;;;;;5055816;28;20519;-35
2023/10/19 02:21:30;;;;;;;9.65;6.35;;;13.50;99.90;;;;;;5055652;28;20025;-34
2023/10/19 02:23:57;;;;;;;10.45;6.68;;;13.50;99.90;;;;;;5055580;28;20036;-35
2023/10/19 02:26:27;;;;;;;11.10;6.15;;;13.60;99.90;;;;;;5075978;28;20481;-35
2023/10/19 02:28:52;;;;;;;16.88;7.07;;;13.70;99.90;;;;;;5075449;28;20054;-34
2023/10/19 02:31:21;;;;;;;11.23;6.20;;;13.80;99.90;;;;;;5075410;28;20087;-35
2023/10/19 02:34:07;;;;;;;10.10;5.93;;;13.80;99.90;;;;;;5074959;28;20028;-34
2023/10/19 02:36:33;;;;;;;13.60;6.28;;;13.90;99.90;;;;;;5053873;28;20104;-34
2023/10/19 02:39:07;;;;;;;9.32;6.18;;;13.90;99.90;;;;;;5072781;28;20226;-35
2023/10/19 02:41:44;;;;;;;11.95;6.53;;;14.00;99.90;;;;;;5074913;28;20052;-33
2023/10/19 02:44:19;;;;;;;8.38;6.40;;;14.00;99.90;;;;;;5075373;28;20020;-34
2023/10/19 02:47:08;;;;;;;9.95;6.10;;;14.00;99.90;;;;;;5057362;28;20503;-35
2023/10/19 02:49:38;;;;;;;9.73;6.45;;;14.10;99.90;;;;;;5055175;28;20482;-35
2023/10/19 02:52:04;;;;;;;7.70;5.65;;;14.20;99.90;;;;;;5037096;28;20024;-34
2023/10/19 02:54:32;;;;;;;14.02;6.78;;;14.20;99.90;;;;;;5063695;28;20024;-34
2023/10/19 02:56:59;;;;;;;10.63;6.70;;;14.20;99.90;;;;;;5074911;28;20013;-34
2023/10/19 02:59:28;;;;;;;8.00;5.10;;;14.30;99.90;;;;;;5075251;28;20530;-34
2023/10/19 03:04:36;;;;;;;11.00;5.88;;;14.30;99.90;;;;;;5075261;28;20048;-34
2023/10/19 03:07:05;;;;;;;6.57;5.22;;;14.40;99.90;;;;;;5074876;28;20029;-36
2023/10/19 03:09:37;;;;;;;12.05;5.85;;;14.40;99.90;;;;;;5074964;28;20035;-36
2023/10/19 03:12:04;;;;;;;7.57;5.25;;;14.40;99.90;;;;;;5073623;28;20025;-34
2023/10/19 03:14:30;;;;;;;11.23;5.35;;;14.40;99.90;;;;;;5075043;28;20050;-35
2023/10/19 03:16:59;;;;;;;7.20;4.60;;;14.50;99.90;;;;;;5074480;28;20024;-34
2023/10/19 03:19:25;;;;;;;9.10;4.60;;;14.50;99.90;;;;;;5056543;28;20040;-34
2023/10/19 03:21:51;;;;;;;10.32;4.25;;;14.50;99.90;;;;;;5074582;28;20044;-34
2023/10/19 03:24:38;;;;;;;5.57;4.10;;;14.60;99.90;;;;;;5074224;28;20421;-35
2023/10/19 03:27:12;;;;;;;8.55;4.20;;;14.60;99.90;;;;;;5074400;28;20020;-35
2023/10/19 03:29:39;;;;;;;6.60;4.00;;;14.60;99.90;;;;;;5074753;28;20028;-34
2023/10/19 03:32:06;;;;;;;5.28;3.60;;;14.70;99.90;;;;;;5074202;28;20029;-34
2023/10/19 03:34:32;;;;;;;13.80;3.70;;;14.70;99.90;;;;;;5088471;28;20024;-34
2023/10/19 03:37:05;;;;;;;5.45;2.58;;;14.70;99.90;;;;;;5094454;28;20150;-33
2023/10/19 03:39:37;;;;;;;8.50;3.38;;;14.70;99.90;;;;;;5070608;28;20025;-34
2023/10/19 03:42:06;;;;;;;5.53;3.08;;;14.80;99.90;;;;;;5073816;28;20040;-34
2023/10/19 03:47:14;;;;;;;4.45;2.83;;;14.80;99.90;;;;;;5074521;28;20028;-35
2023/10/19 03:49:40;;;;;;;9.02;2.95;;;14.80;99.90;;;;;;5068122;28;20028;-34
2023/10/19 03:54:40;;;;;;;6.20;2.38;;;14.80;99.90;;;;;;5074059;28;20078;-34
2023/10/19 03:57:25;;;;;;;4.80;2.30;;;14.80;99.90;;;;;;5073983;28;20028;-34
2023/10/19 04:00:00;;;;;;;3.80;1.80;;;14.80;99.90;;;;;;5073819;28;20024;-33
2023/10/19 04:02:35;;;;;;;6.63;2.17;;;14.90;99.90;;;;;;5055881;28;20070;-34
2023/10/19 04:05:02;;;;;;;1.85;1.75;;;14.80;99.90;;;;;;5074051;28;20035;-34
2023/10/19 04:07:31;;;;;;;;;;;14.80;99.90;;;;;;5074099;28;20113;-34
2023/10/19 04:10:09;;;;;;;3.33;1.10;;;14.80;99.90;;;;;;5073735;28;19927;-34
2023/10/19 04:12:36;;;;;;;3.25;2.20;;;14.80;99.90;;;;;;5073450;28;20024;-33
2023/10/19 04:15:16;;;;;;;4.32;1.83;;;14.80;99.90;;;;;;5073440;28;20526;-33
2023/10/19 04:17:43;;;;;;;3.47;2.20;;;14.70;99.90;;;;;;5073450;28;20074;-34
2023/10/19 04:20:41;;;;;;;1.75;1.23;;;14.70;99.90;;;;;;5073445;28;20055;-36
2023/10/19 04:23:06;;;;;;;3.72;1.25;;;14.70;99.90;;;;;;5072892;28;20115;-33
2023/10/19 04:25:31;;;;;;;6.25;1.38;;;14.70;99.90;;;;;;5073100;28;20025;-33
2023/10/19 04:27:57;;;;;;;2.10;1.30;;;14.70;99.90;;;;;;5073151;28;20535;-34
2023/10/19 04:30:26;;;;;;;2.90;1.20;;;14.60;99.90;;;;;;5073113;28;20086;-33
2023/10/19 04:32:52;;;;;;;3.67;1.30;;;14.60;99.90;;;;;;5073154;28;20109;-34
2023/10/19 04:35:21;;;;;;;3.38;1.13;;;14.60;99.90;;;;;;5055326;28;20528;-33
2023/10/19 04:37:53;;;;;;;1.50;1.40;;;14.60;99.90;;;;;;5073411;28;20025;-33
2023/10/19 04:40:20;;;;;;;3.28;1.02;;;14.60;99.90;;;;;;5073003;28;20036;-33
2023/10/19 04:42:49;;;;;;;2.97;0.77;;;14.50;99.90;;;;;;5072800;28;20566;-34
2023/10/19 04:45:14;;;;;;;5.32;0.80;;;14.60;99.90;;;;;;5073155;28;20021;-34
2023/10/19 04:47:40;;;;;;;11.88;1.25;;;14.60;99.90;;;;;;5073238;28;20028;-34
2023/10/19 04:50:07;;;;;;;0.80;0.70;;;14.60;99.90;;;;;;5072842;28;20107;-34
2023/10/19 04:52:33;;;;;;;2.70;0.98;;;14.60;99.90;;;;;;5054951;28;20384;-34
2023/10/19 04:54:59;;;;;;;3.20;0.82;;;14.60;99.90;;;;;;5072863;28;20080;-34
2023/10/19 04:57:28;;;;;;;2.13;0.85;;;14.60;99.90;;;;;;5072794;28;20396;-33
2023/10/19 04:59:55;;;;;;;0.75;0.60;;;14.60;99.90;;;;;;5072827;28;20145;-33
2023/10/19 05:02:21;;;;;;;18.45;1.10;;;14.60;99.90;;;;;;5073094;28;20033;-34
2023/10/19 05:04:46;;;;;;;0.85;0.60;;;14.60;99.90;;;;;;5072920;28;20377;-34
2023/10/19 05:07:16;;;;;;;3.10;0.57;;;14.60;99.90;;;;;;5072800;28;20025;-34
2023/10/19 05:09:45;;;;;;;3.20;1.00;;;14.60;99.90;;;;;;5072733;28;20503;-35
2023/10/19 05:12:11;;;;;;;5.93;0.75;;;14.70;99.90;;;;;;5072818;28;20031;-34
2023/10/19 05:14:38;;;;;;;2.00;1.00;;;14.70;99.90;;;;;;5072774;28;20024;-35
2023/10/19 05:17:04;;;;;;;3.00;0.88;;;14.70;99.90;;;;;;5071956;28;20020;-34
2023/10/19 05:19:31;;;;;;;1.75;0.90;;;14.70;99.90;;;;;;5072810;28;20086;-33
2023/10/19 05:21:57;;;;;;;3.35;1.25;;;14.70;99.90;;;;;;5054606;28;20037;-34
2023/10/19 05:24:22;;;;;;;3.63;0.65;;;14.70;99.90;;;;;;5072326;28;20031;-33
2023/10/19 05:26:49;;;;;;;1.33;0.80;;;14.70;99.90;;;;;;5072480;28;20032;-34
2023/10/19 05:29:15;;;;;;;0.98;0.45;;;14.70;99.90;;;;;;5072504;28;20032;-34
2023/10/19 05:31:41;;;;;;;4.40;0.77;;;14.70;99.90;;;;;;5054304;28;20025;-34
2023/10/19 05:34:08;;;;;;;2.70;0.50;;;14.70;99.90;;;;;;5072860;28;20035;-34
2023/10/19 05:36:34;;;;;;;7.67;1.43;;;14.70;99.90;;;;;;5078135;28;20020;-36
2023/10/19 05:38:59;;;;;;;2.22;0.73;;;14.80;99.90;;;;;;5081228;28;20034;-34
2023/10/19 05:41:26;;;;;;;6.10;0.88;;;14.80;99.90;;;;;;5072213;28;20030;-35
2023/10/19 05:43:53;;;;;;;4.22;0.68;;;14.80;99.90;;;;;;5065116;28;20401;-35
2023/10/19 05:46:21;;;;;;;4.78;0.70;;;14.80;99.90;;;;;;5062128;28;20035;-33
2023/10/19 05:48:49;;;;;;;3.55;0.80;;;14.80;99.90;;;;;;5072333;28;20028;-33
2023/10/19 05:51:15;;;;;;;2.15;0.77;;;14.80;99.90;;;;;;5072256;28;20033;-35
2023/10/19 05:53:41;;;;;;;2.15;0.75;;;14.80;99.90;;;;;;5071929;28;20378;-34
2023/10/19 05:56:07;;;;;;;1.55;0.50;;;14.80;99.90;;;;;;5071531;28;20028;-36
2023/10/19 05:58:32;;;;;;;3.70;0.70;;;14.80;99.90;;;;;;5072054;28;20021;-34
2023/10/19 06:00:59;;;;;;;1.65;0.70;;;14.80;99.90;;;;;;5072080;28;20086;-34
2023/10/19 06:03:24;;;;;;;2.75;0.52;;;14.80;99.90;;;;;;5071812;28;20035;-35
2023/10/19 06:05:50;;;;;;;4.22;0.80;;;14.80;99.90;;;;;;5072210;28;20104;-35
2023/10/19 06:08:16;;;;;;;5.28;0.80;;;14.80;99.90;;;;;;5073240;28;20079;-34
2023/10/19 06:10:42;;;;;;;5.53;1.00;;;14.80;99.90;;;;;;5076023;28;20028;-34
2023/10/19 06:13:09;;;;;;;5.20;0.75;;;14.80;99.90;;;;;;5071573;28;20109;-34
2023/10/19 06:15:35;;;;;;;6.47;0.98;;;14.80;99.90;;;;;;5055860;28;20025;-35
2023/10/19 06:18:01;;;;;;;4.20;0.95;;;14.80;99.90;;;;;;5069004;28;20078;-35
2023/10/19 06:20:26;;;;;;;4.63;0.80;;;14.80;99.90;;;;;;5075689;28;20056;-35
2023/10/19 06:23:04;;;;;;;5.45;0.82;;;14.80;99.90;;;;;;5056954;28;20492;-35
2023/10/19 06:25:30;;;;;;;1.08;0.70;;;14.90;99.90;;;;;;5074533;28;20461;-34
2023/10/19 06:27:57;;;;;;;4.20;1.42;;;14.90;99.90;;;;;;5075216;28;20469;-36
2023/10/19 06:30:23;;;;;;;2.58;1.00;;;14.90;99.90;;;;;;5075638;28;20024;-35
2023/10/19 06:33:03;;;;;;;3.10;1.25;;;14.90;99.90;;;;;;5074477;28;20020;-35
2023/10/19 06:35:33;;;;;;;5.25;0.75;;;14.80;99.90;;;;;;5072760;28;20477;-36
2023/10/19 06:38:00;;;;;;;2.95;0.80;;;14.90;99.90;;;;;;5075588;28;20028;-35
2023/10/19 06:40:27;;;;;;;1.55;0.60;;;14.90;99.90;;;;;;5057486;28;20040;-35
2023/10/19 06:42:56;;;;;;;1.83;1.02;;;14.90;99.90;;;;;;5074817;28;20048;-35
2023/10/19 06:45:21;;;;;;;3.90;0.80;;;14.80;99.90;;;;;;5064418;28;20044;-36
2023/10/19 06:47:49;;;;;;;5.30;0.93;;;14.90;99.90;;;;;;5074993;28;20032;-36
2023/10/19 06:50:16;;;;;;;;;;;14.80;99.90;;;;;;5075245;28;20051;-36
2023/10/19 06:52:42;;;;;;;6.03;1.20;;;14.90;99.90;;;;;;5040165;28;19909;-35
2023/10/19 06:58:05;;;;;;;7.57;0.95;;;14.90;99.90;;;;;;5037685;28;20033;-36
2023/10/19 07:00:30;;;;;;;5.70;1.25;;;14.90;99.90;;;;;;5054977;28;20033;-36
2023/10/19 07:03:00;;;;;;;5.03;1.02;;;14.90;99.90;;;;;;5062975;28;20031;-35
2023/10/19 07:05:29;;;;;;;6.07;0.93;;;14.90;99.90;;;;;;5075225;28;20494;-35
2023/10/19 07:07:56;;;;;;;4.32;1.17;;;14.90;99.90;;;;;;5074232;28;20091;-36
2023/10/19 07:10:22;;;;;;;3.28;1.08;;;14.90;99.90;;;;;;5055125;28;20039;-37
2023/10/19 07:12:52;;;;;;;2.38;1.20;;;15.00;99.90;;;;;;5054778;28;20109;-40
2023/10/19 07:15:22;;;;;;;2.70;1.40;;;15.00;99.90;;;;;;5054699;28;20036;-36
2023/10/19 07:17:48;;;;;;;3.97;0.93;;;15.00;99.90;;;;;;5054975;28;20043;-35
2023/10/19 07:20:25;;;;;;;5.55;1.05;;;15.00;99.90;;;;;;5053919;28;20033;-36
2023/10/19 07:22:52;;;;;;;1.95;1.33;;;15.00;99.90;;;;;;5074531;28;20031;-37
2023/10/19 07:25:21;;;;;;;3.03;1.48;;;15.10;99.90;;;;;;5070728;28;20021;-36
2023/10/19 07:27:48;;;;;;;2.97;0.90;;;15.10;99.90;;;;;;5074490;28;20040;-36
2023/10/19 07:30:15;;;;;;;12.27;1.40;;;15.10;99.90;;;;;;5074400;28;20480;-40
2023/10/19 07:32:41;;;;;;;2.17;1.47;;;15.20;99.90;;;;;;5073952;28;20023;-36
2023/10/19 07:35:07;;;;;;;4.78;0.88;;;15.20;99.90;;;;;;5074607;28;20444;-38
2023/10/19 07:37:33;;;;;;;4.45;0.80;;;15.20;99.90;;;;;;5074251;28;20038;-36
2023/10/19 07:39:59;;;;;;;7.28;1.35;;;15.20;99.90;;;;;;5074002;28;20024;-36
2023/10/19 07:42:25;;;;;;;3.67;1.10;;;15.20;99.90;;;;;;5073860;28;20409;-36
2023/10/19 07:44:52;;;;;;;2.95;1.30;;;15.20;99.90;;;;;;5075608;28;20412;-35
2023/10/19 07:47:18;;;;;;;8.48;1.27;;;15.30;99.90;;;;;;5074140;28;20112;-36
2023/10/19 07:49:44;;;;;;;2.10;0.80;;;15.30;99.90;;;;;;5073956;28;20055;-36
2023/10/19 07:52:14;;;;;;;6.05;1.00;;;15.30;99.90;;;;;;5073913;28;20079;-37
2023/10/19 07:54:40;;;;;;;9.30;1.95;;;15.40;99.90;;;;;;5073920;28;20434;-36
2023/10/19 07:57:06;;;;;;;5.30;0.93;;;15.40;99.90;;;;;;5073681;28;20056;-36
2023/10/19 07:59:32;;;;;;;3.92;1.17;;;15.40;99.90;;;;;;5055749;28;20059;-36
2023/10/19 08:02:02;;;;;;;9.20;1.08;;;15.50;99.90;;;;;;5073819;28;20079;-36
2023/10/19 08:04:28;;;;;;;3.70;1.05;;;15.50;99.90;;;;;;5055777;28;20090;-36
2023/10/19 08:06:55;;;;;;;3.75;1.00;;;15.50;99.90;;;;;;5073695;28;20061;-35
2023/10/19 08:09:22;;;;;;;4.03;0.57;;;15.50;99.90;;;;;;5055758;28;20027;-48
2023/10/19 08:11:55;;;;;;;9.80;1.92;;;15.50;99.90;;;;;;5073592;28;20126;-50
2023/10/19 08:14:24;;;;;;;8.73;1.10;;;15.60;99.90;;;;;;5073461;28;20031;-47
2023/10/19 08:16:50;;;;;;;7.65;1.77;;;15.60;99.90;;;;;;5073599;28;20496;-46
2023/10/19 08:19:16;;;;;;;8.32;1.55;;;15.60;99.90;;;;;;5073434;28;20497;-49
2023/10/19 08:21:42;;;;;;;10.40;2.45;;;15.60;99.90;;;;;;5073497;28;20054;-59
2023/10/19 08:24:13;;;;;;;3.92;1.45;;;15.60;99.90;;;;;;5073608;28;20063;-50
2023/10/19 08:26:39;;;;;;;7.82;1.42;;;15.60;99.90;;;;;;5073581;28;20465;-51
2023/10/19 08:29:12;;;;;;;2.90;0.90;;;15.60;99.90;;;;;;5073302;28;20413;-51
2023/10/19 08:31:41;;;;;;;11.00;1.65;;;15.70;99.90;;;;;;5073052;28;20508;-47
2023/10/19 08:34:09;;;;;;;18.05;1.40;;;15.70;99.90;;;;;;5073034;28;20024;-48
2023/10/19 08:36:37;;;;;;;;;;;15.80;99.90;;;;;;5073485;28;20036;-51
2023/10/19 08:39:08;;;;;;;4.57;1.10;;;15.80;99.90;;;;;;5073100;28;20420;-50
2023/10/19 08:41:35;;;;;;;7.47;1.92;;;15.80;99.90;;;;;;5073037;28;20497;-48
2023/10/19 08:44:26;;;;;;;5.47;1.77;;;15.90;99.90;;;;;;5081550;28;20458;-35
2023/10/19 08:46:51;;;;;;;5.93;1.75;;;16.00;99.90;;;;;;5092903;28;20480;-36
2023/10/19 08:49:19;;;;;;;2.88;1.15;;;16.00;99.90;;;;;;5079754;28;20111;-50
2023/10/19 08:51:46;;;;;;;;;;;16.10;99.90;;;;;;5073364;28;20101;-51
2023/10/19 08:54:13;;;;;;;3.90;1.42;;;16.10;99.90;;;;;;5073013;28;19958;-35
2023/10/19 08:56:41;;;;;;;8.15;2.00;;;16.30;99.90;;;;;;5072927;28;20025;-34
2023/10/19 08:59:07;;;;;;;7.45;2.00;;;16.40;99.90;;;;;;5073074;28;20024;-35
2023/10/19 09:01:35;;;;;;;4.50;1.48;;;16.40;99.90;;;;;;5054827;28;20048;-35
2023/10/19 09:04:01;;;;;;;;;;;16.60;99.90;;;;;;5073168;28;20028;-36
2023/10/19 09:06:30;;;;;;;4.65;2.10;;;16.50;99.90;;;;;;5072568;28;20399;-35
2023/10/19 09:08:57;;;;;;;24.42;13.98;;;16.60;99.90;;;;;;5052622;28;20047;-36
2023/10/19 09:11:24;;;;;;;11.13;6.60;;;16.50;99.90;;;;;;5052531;28;20025;-35
2023/10/19 09:13:53;;;;;;;16.87;6.43;;;16.50;99.90;;;;;;5053128;28;20104;-48
2023/10/19 09:16:20;;;;;;;6.07;2.13;;;16.50;99.90;;;;;;5052643;28;20029;-51
2023/10/19 09:18:49;;;;;;;10.88;1.73;;;16.50;99.90;;;;;;5052654;28;20025;-51
2023/10/19 09:21:26;;;;;;;4.60;1.13;;;16.50;99.90;;;;;;5084152;28;20032;-51
2023/10/19 09:23:55;;;;;;;8.73;2.13;;;16.60;99.90;;;;;;5074650;28;20042;-51
2023/10/19 09:26:22;;;;;;;11.75;6.85;;;16.60;99.90;;;;;;5072495;28;20089;-50
2023/10/19 09:28:49;;;;;;;9.40;4.75;;;16.60;99.90;;;;;;5072877;28;20111;-51
2023/10/19 09:31:16;;;;;;;3.30;1.30;;;16.70;99.90;;;;;;5072467;28;20086;-47
2023/10/19 09:33:46;;;;;;;5.05;3.35;;;16.80;99.90;;;;;;5054455;28;20032;-47
2023/10/19 09:36:13;;;;;;;12.07;4.55;;;16.90;99.90;;;;;;5071731;28;20047;-51
2023/10/19 09:38:51;;;;;;;6.93;2.35;;;17.10;99.90;;;;;;5070192;28;20738;-49
2023/10/19 09:41:27;;;;;;;11.20;8.77;;;17.20;99.90;;;;;;5071251;28;20052;-52
2023/10/19 09:43:58;;;;;;;4.20;3.80;;;17.30;99.90;;;;;;5060773;28;20091;-49
2023/10/19 09:46:28;;;;;;;7.20;3.08;;;17.30;99.90;;;;;;5076707;28;20050;-50
2023/10/19 09:48:54;;;;;;;19.55;6.90;;;17.30;99.90;;;;;;5076255;28;20028;-53
2023/10/19 09:51:22;;;;;;;8.57;2.97;;;17.40;99.90;;;;;;5074790;28;20039;-52
2023/10/19 09:54:10;;;;;;;3.83;2.58;;;17.40;99.90;;;;;;5075906;28;20478;-53
2023/10/19 09:56:44;;;;;;;5.03;2.35;;;17.50;99.90;;;;;;5075760;28;20021;-53
2023/10/19 09:59:27;;;;;;;8.63;2.20;;;17.50;99.90;;;;;;5075993;28;20082;-51
2023/10/19 10:02:15;;;;;;;5.70;1.83;;;17.50;99.90;;;;;;5076082;28;20036;-52
2023/10/19 10:04:41;;;;;;;;;;;17.50;99.90;;;;;;5076519;28;20276;-53
2023/10/19 10:07:09;;;;;;;7.60;1.30;;;17.50;99.90;;;;;;5076106;28;20384;-53
2023/10/19 10:09:42;;;;;;;5.65;1.90;;;17.50;99.90;;;;;;5076601;28;20107;-53
2023/10/19 10:12:23;;;;;;;7.82;2.97;;;17.50;99.90;;;;;;5077260;28;20029;-52
2023/10/19 10:15:01;;;;;;;10.05;2.60;;;17.40;99.90;;;;;;5074117;28;20112;-51
2023/10/19 10:17:27;;;;;;;7.45;1.83;;;17.40;99.90;;;;;;5060707;28;20378;-52
2023/10/19 10:20:14;;;;;;;7.22;1.60;;;17.50;99.90;;;;;;5069283;28;20032;-62
2023/10/19 10:22:43;;;;;;;9.55;2.75;;;17.60;99.90;;;;;;5065674;28;20064;-49
2023/10/19 10:25:26;;;;;;;8.50;2.10;;;17.60;99.90;;;;;;5058094;28;20036;-53
2023/10/19 10:27:52;;;;;;;7.82;2.28;;;17.60;99.90;;;;;;5055679;28;20032;-54
2023/10/19 10:30:18;;;;;;;6.57;1.77;;;17.60;99.90;;;;;;5060325;28;20020;-52
2023/10/19 10:32:50;;;;;;;7.70;1.60;;;17.60;99.90;;;;;;5075666;28;20023;-51
2023/10/19 10:35:41;;;;;;;6.90;1.20;;;17.50;99.90;;;;;;5074746;28;20020;-48
2023/10/19 10:38:12;;;;;;;14.45;1.55;;;17.50;99.90;;;;;;5075904;28;20040;-51
2023/10/19 10:40:49;;;;;;;5.65;1.30;;;17.60;99.90;;;;;;5075537;28;20021;-49
2023/10/19 10:43:16;;;;;;;11.73;2.67;;;17.60;99.90;;;;;;5073985;28;20132;-51
2023/10/19 10:45:42;;;;;;;8.27;2.07;;;17.60;99.90;;;;;;5075075;28;20489;-50
2023/10/19 10:48:15;;;;;;;4.15;1.63;;;17.60;99.90;;;;;;5074753;28;20027;-53
2023/10/19 10:50:41;;;;;;;5.63;1.45;;;17.70;99.90;;;;;;5074916;28;20083;-52
2023/10/19 10:53:08;;;;;;;6.50;1.50;;;17.80;99.90;;;;;;5075173;28;20099;-50
2023/10/19 10:55:34;;;;;;;4.87;1.83;;;17.80;99.90;;;;;;5074588;28;20104;-53
2023/10/19 10:58:00;;;;;;;11.57;1.92;;;17.90;99.90;;;;;;5074459;28;20449;-52
2023/10/19 11:00:26;;;;;;;6.15;1.95;;;18.10;99.90;;;;;;5074500;28;20023;-52
2023/10/19 11:03:08;;;;;;;7.95;2.28;;;18.30;99.90;;;;;;5073704;28;20099;-51
2023/10/19 11:05:35;;;;;;;8.35;1.42;;;18.40;99.90;;;;;;5069669;28;20025;-50
2023/10/19 11:08:17;;;;;;;7.88;1.65;;;18.50;99.90;;;;;;5055119;28;20539;-51
2023/10/19 11:10:46;;;;;;;3.00;1.65;;;18.70;99.90;;;;;;5055108;28;20100;-53
2023/10/19 11:13:16;;;;;;;9.60;2.53;;;18.80;99.90;;;;;;5054753;28;20021;-53
2023/10/19 11:15:58;;;;;;;5.88;1.40;;;18.90;99.90;;;;;;5054832;28;20525;-51
2023/10/19 11:18:35;;;;;;;3.10;1.48;;;19.00;99.90;;;;;;5054799;28;20079;-54
2023/10/19 11:21:05;;;;;;;7.72;1.02;;;19.00;99.90;;;;;;5056900;28;20039;-56
2023/10/19 11:23:42;;;;;;;5.25;2.05;;;19.00;99.90;;;;;;5074766;28;20028;-54
2023/10/19 11:26:09;;;;;;;8.45;2.80;;;18.80;99.90;;;;;;5074621;28;20029;-55
2023/10/19 11:28:38;;;;;;;3.88;1.27;;;18.70;99.90;;;;;;5074567;28;20048;-53
2023/10/19 11:31:16;;;;;;;4.72;1.35;;;18.70;99.90;;;;;;5056350;28;20029;-52
2023/10/19 11:33:43;;;;;;;7.47;1.27;;;18.70;99.90;;;;;;5074439;28;20035;-53
2023/10/19 11:36:09;;;;;;;9.52;1.40;;;18.70;99.90;;;;;;5074323;28;20504;-50
2023/10/19 11:38:35;;;;;;;12.63;1.60;;;18.60;99.90;;;;;;5074560;28;20030;-52
2023/10/19 11:41:03;;;;;;;10.55;2.35;;;18.50;99.90;;;;;;5074345;28;20086;-53
2023/10/19 11:43:29;;;;;;;3.75;1.00;;;18.50;99.90;;;;;;5073956;28;20390;-53
2023/10/19 11:45:55;;;;;;;4.32;1.20;;;18.60;99.90;;;;;;5056506;28;20024;-47
2023/10/19 11:48:20;;;;;;;5.97;1.88;;;18.60;99.90;;;;;;5054849;28;20033;-53
2023/10/19 11:50:47;;;;;;;8.68;1.65;;;18.60;99.90;;;;;;5036386;28;20065;-52
2023/10/19 11:53:13;;;;;;;13.82;1.52;;;18.60;99.90;;;;;;5071658;28;20029;-50
2023/10/19 11:55:41;;;;;;;3.78;1.75;;;18.60;99.90;;;;;;5073739;28;20501;-52
2023/10/19 11:58:11;;;;;;;7.82;1.35;;;18.70;99.90;;;;;;5073915;28;20377;-50
2023/10/19 12:00:37;;;;;;;6.13;1.38;;;18.90;99.90;;;;;;5074209;28;20401;-53
2023/10/19 12:03:04;;;;;;;10.55;2.75;;;19.00;99.90;;;;;;5055960;28;20036;-51
2023/10/19 12:05:30;;;;;;;4.72;1.08;;;19.00;99.90;;;;;;5073319;28;20111;-52
2023/10/19 12:07:56;;;;;;;6.90;1.23;;;19.10;99.90;;;;;;5073793;28;20052;-52
2023/10/19 12:10:32;;;;;;;7.78;1.58;;;19.00;99.90;;;;;;5071225;28;20031;-54
2023/10/19 12:12:58;;;;;;;6.60;1.38;;;19.00;99.90;;;;;;5055171;28;20557;-52
2023/10/19 12:15:25;;;;;;;14.63;1.60;;;19.00;99.90;;;;;;5073034;28;20021;-53
2023/10/19 12:17:51;;;;;;;6.32;1.40;;;18.90;99.90;;;;;;5073574;28;20067;-54
2023/10/19 12:20:21;;;;;;;10.75;1.48;;;18.90;99.90;;;;;;5072895;28;20056;-53
2023/10/19 12:22:47;;;;;;;5.70;1.45;;;18.90;99.90;;;;;;5071597;28;20094;-53
2023/10/19 12:25:14;;;;;;;5.53;2.13;;;18.80;99.90;;;;;;5072946;28;20358;-51
2023/10/19 12:27:40;;;;;;;6.80;1.25;;;18.70;99.90;;;;;;5073656;28;20039;-54
2023/10/19 12:30:16;;;;;;;4.07;1.23;;;18.70;99.90;;;;;;5072589;28;20093;-50
2023/10/19 12:32:43;;;;;;;4.30;1.15;;;18.70;99.90;;;;;;5072767;28;20063;-52
2023/10/19 12:35:36;;;;;;;7.32;1.15;;;18.60;99.90;;;;;;5078394;28;20021;-43
2023/10/19 12:38:06;;;;;;;9.35;1.30;;;18.70;99.90;;;;;;5074603;28;20377;-39
2023/10/19 12:40:35;;;;;;;7.50;1.90;;;18.80;99.90;;;;;;5072998;28;20024;-42
2023/10/19 12:43:07;;;;;;;20.50;2.17;;;18.90;99.90;;;;;;5072939;28;20048;-42
2023/10/19 12:45:36;;;;;;;8.82;1.85;;;18.90;99.90;;;;;;5072756;28;20021;-39
2023/10/19 12:48:04;;;;;;;3.05;1.05;;;18.80;99.90;;;;;;5073190;28;20376;-39
2023/10/19 12:50:30;;;;;;;;;;;18.70;99.90;;;;;;5073235;28;20035;-42
2023/10/19 12:52:56;;;;;;;6.75;1.58;;;18.70;99.90;;;;;;5073131;28;19908;-41
2023/10/19 12:55:25;;;;;;;11.80;1.58;;;18.60;99.90;;;;;;5054832;28;20029;-46
2023/10/19 12:57:50;;;;;;;9.45;1.60;;;18.60;99.90;;;;;;5072918;28;20381;-43
2023/10/19 13:00:35;;;;;;;10.88;2.33;;;18.60;99.90;;;;;;5080227;28;20025;-45
2023/10/19 13:03:04;;;;;;;9.27;1.77;;;18.60;99.90;;;;;;5087423;28;20036;-42
2023/10/19 13:05:34;;;;;;;5.85;1.40;;;18.60;99.90;;;;;;5072664;28;20040;-43
2023/10/19 13:08:00;;;;;;;12.70;1.80;;;18.50;99.90;;;;;;5072553;28;20505;-40
2023/10/19 13:10:34;;;;;;;7.55;1.67;;;18.40;99.90;;;;;;5072805;28;20382;-45
2023/10/19 13:13:03;;;;;;;11.68;1.67;;;18.40;99.90;;;;;;5055005;28;20035;-45
2023/10/19 13:15:34;;;;;;;5.35;1.17;;;18.30;99.90;;;;;;5072457;28;20393;-44
2023/10/19 13:18:01;;;;;;;10.32;1.70;;;18.30;99.90;;;;;;5071814;28;20031;-39
2023/10/19 13:20:36;;;;;;;6.90;1.20;;;18.30;99.90;;;;;;5081343;28;20029;-42